sensor_id;sensor_type;location;lat;lon;timestamp;P1;durP1;ratioP1;P2;durP2;ratioP2
22240;SDS011;11289;52.524;13.694;2022-12-18T00:01:02;62.25;;;27.23;;
22240;SDS011;11289;52.524;13.694;2022-12-18T00:03:34;68.97;;;28.05;;
22240;SDS011;11289;52.524;13.694;2022-12-18T00:06:00;71.15;;;28.85;;
22240;SDS011;11289;52.524;13.694;2022-12-18T00:08:27;72.13;;;27.77;;
22240;SDS011;11289;52.524;13.694;2022-12-18T00:10:52;77.13;;;30.52;;
22240;SDS011;11289;52.524;13.694;2022-12-18T00:13:18;74.28;;;30.60;;
22240;SDS011;11289;52.524;13.694;2022-12-18T00:15:43;81.07;;;30.63;;
22240;SDS011;11289;52.524;13.694;2022-12-18T00:18:09;69.95;;;30.13;;
22240;SDS011;11289;52.524;13.694;2022-12-18T00:20:38;74.88;;;31.10;;
22240;SDS011;11289;52.524;13.694;2022-12-18T00:23:05;72.05;;;30.38;;
22240;SDS011;11289;52.524;13.694;2022-12-18T00:25:34;68.05;;;30.83;;
22240;SDS011;11289;52.524;13.694;2022-12-18T00:28:01;72.93;;;30.73;;
22240;SDS011;11289;52.524;13.694;2022-12-18T00:30:27;79.85;;;31.90;;
22240;SDS011;11289;52.524;13.694;2022-12-18T00:32:53;62.00;;;27.08;;
22240;SDS011;11289;52.524;13.694;2022-12-18T00:35:18;66.15;;;28.30;;
22240;SDS011;11289;52.524;13.694;2022-12-18T00:37:44;68.53;;;27.70;;
22240;SDS011;11289;52.524;13.694;2022-12-18T00:40:09;65.28;;;28.75;;
22240;SDS011;11289;52.524;13.694;2022-12-18T00:42:35;72.20;;;29.88;;
22240;SDS011;11289;52.524;13.694;2022-12-18T00:45:19;64.85;;;27.55;;
22240;SDS011;11289;52.524;13.694;2022-12-18T00:47:45;64.82;;;26.92;;
22240;SDS011;11289;52.524;13.694;2022-12-18T00:50:10;56.15;;;25.25;;
22240;SDS011;11289;52.524;13.694;2022-12-18T00:52:35;52.80;;;24.40;;
22240;SDS011;11289;52.524;13.694;2022-12-18T00:55:01;53.28;;;23.77;;
22240;SDS011;11289;52.524;13.694;2022-12-18T00:57:26;50.45;;;21.75;;
22240;SDS011;11289;52.524;13.694;2022-12-18T00:59:51;47.88;;;21.15;;
22240;SDS011;11289;52.524;13.694;2022-12-18T01:02:17;50.65;;;22.00;;
22240;SDS011;11289;52.524;13.694;2022-12-18T01:04:42;46.72;;;19.90;;
22240;SDS011;11289;52.524;13.694;2022-12-18T01:07:08;39.53;;;18.67;;
22240;SDS011;11289;52.524;13.694;2022-12-18T01:09:33;44.78;;;19.00;;
22240;SDS011;11289;52.524;13.694;2022-12-18T01:11:59;42.83;;;19.58;;
22240;SDS011;11289;52.524;13.694;2022-12-18T01:14:25;41.92;;;18.52;;
22240;SDS011;11289;52.524;13.694;2022-12-18T01:16:50;40.55;;;18.65;;
22240;SDS011;11289;52.524;13.694;2022-12-18T01:19:15;34.35;;;16.40;;
22240;SDS011;11289;52.524;13.694;2022-12-18T01:21:40;32.95;;;16.60;;
22240;SDS011;11289;52.524;13.694;2022-12-18T01:24:06;35.13;;;16.38;;
22240;SDS011;11289;52.524;13.694;2022-12-18T01:26:32;32.65;;;16.73;;
22240;SDS011;11289;52.524;13.694;2022-12-18T01:28:57;38.70;;;16.05;;
22240;SDS011;11289;52.524;13.694;2022-12-18T01:31:24;39.65;;;16.42;;
22240;SDS011;11289;52.524;13.694;2022-12-18T01:33:53;36.50;;;15.57;;
22240;SDS011;11289;52.524;13.694;2022-12-18T01:36:21;36.88;;;16.58;;
22240;SDS011;11289;52.524;13.694;2022-12-18T01:38:48;33.55;;;15.80;;
22240;SDS011;11289;52.524;13.694;2022-12-18T01:41:14;34.35;;;17.05;;
22240;SDS011;11289;52.524;13.694;2022-12-18T01:46:16;44.65;;;18.13;;
22240;SDS011;11289;52.524;13.694;2022-12-18T01:48:43;44.03;;;17.90;;
22240;SDS011;11289;52.524;13.694;2022-12-18T01:51:11;41.30;;;17.90;;
22240;SDS011;11289;52.524;13.694;2022-12-18T01:53:38;39.80;;;17.20;;
22240;SDS011;11289;52.524;13.694;2022-12-18T01:56:05;32.72;;;17.38;;
22240;SDS011;11289;52.524;13.694;2022-12-18T01:58:39;40.33;;;16.20;;
22240;SDS011;11289;52.524;13.694;2022-12-18T02:01:28;34.28;;;16.80;;
22240;SDS011;11289;52.524;13.694;2022-12-18T02:03:55;39.88;;;16.85;;
22240;SDS011;11289;52.524;13.694;2022-12-18T02:11:42;35.78;;;17.30;;
22240;SDS011;11289;52.524;13.694;2022-12-18T02:14:22;40.40;;;17.02;;
22240;SDS011;11289;52.524;13.694;2022-12-18T02:20:01;35.10;;;15.30;;
22240;SDS011;11289;52.524;13.694;2022-12-18T02:27:54;35.53;;;16.20;;
22240;SDS011;11289;52.524;13.694;2022-12-18T02:30:24;40.30;;;16.23;;
22240;SDS011;11289;52.524;13.694;2022-12-18T02:32:51;30.90;;;15.40;;
22240;SDS011;11289;52.524;13.694;2022-12-18T02:35:21;36.20;;;16.17;;
22240;SDS011;11289;52.524;13.694;2022-12-18T02:37:49;33.83;;;15.90;;
22240;SDS011;11289;52.524;13.694;2022-12-18T02:40:19;33.40;;;15.80;;
22240;SDS011;11289;52.524;13.694;2022-12-18T02:42:46;33.95;;;15.27;;
22240;SDS011;11289;52.524;13.694;2022-12-18T02:45:11;35.88;;;15.48;;
22240;SDS011;11289;52.524;13.694;2022-12-18T02:47:38;42.70;;;17.63;;
22240;SDS011;11289;52.524;13.694;2022-12-18T02:57:46;35.88;;;16.88;;
22240;SDS011;11289;52.524;13.694;2022-12-18T03:00:30;38.92;;;18.02;;
22240;SDS011;11289;52.524;13.694;2022-12-18T03:06:04;36.15;;;18.40;;
22240;SDS011;11289;52.524;13.694;2022-12-18T03:08:38;35.45;;;17.75;;
22240;SDS011;11289;52.524;13.694;2022-12-18T03:11:11;33.53;;;15.50;;
22240;SDS011;11289;52.524;13.694;2022-12-18T03:13:48;36.70;;;16.73;;
22240;SDS011;11289;52.524;13.694;2022-12-18T03:16:22;34.50;;;15.85;;
22240;SDS011;11289;52.524;13.694;2022-12-18T03:18:59;38.20;;;16.70;;
22240;SDS011;11289;52.524;13.694;2022-12-18T03:21:39;37.85;;;16.10;;
22240;SDS011;11289;52.524;13.694;2022-12-18T03:24:08;34.53;;;14.80;;
22240;SDS011;11289;52.524;13.694;2022-12-18T03:26:35;38.50;;;15.55;;
22240;SDS011;11289;52.524;13.694;2022-12-18T03:29:06;35.03;;;15.88;;
22240;SDS011;11289;52.524;13.694;2022-12-18T03:31:39;36.30;;;15.75;;
22240;SDS011;11289;52.524;13.694;2022-12-18T03:34:15;36.22;;;16.38;;
22240;SDS011;11289;52.524;13.694;2022-12-18T03:36:44;33.42;;;15.13;;
22240;SDS011;11289;52.524;13.694;2022-12-18T03:39:10;36.65;;;17.15;;
22240;SDS011;11289;52.524;13.694;2022-12-18T03:41:46;38.70;;;16.83;;
22240;SDS011;11289;52.524;13.694;2022-12-18T03:44:31;38.42;;;17.80;;
22240;SDS011;11289;52.524;13.694;2022-12-18T03:47:06;37.30;;;17.48;;
22240;SDS011;11289;52.524;13.694;2022-12-18T03:49:39;38.40;;;17.58;;
22240;SDS011;11289;52.524;13.694;2022-12-18T03:52:39;34.35;;;16.98;;
22240;SDS011;11289;52.524;13.694;2022-12-18T03:55:05;33.70;;;15.32;;
22240;SDS011;11289;52.524;13.694;2022-12-18T03:57:33;38.50;;;17.80;;
22240;SDS011;11289;52.524;13.694;2022-12-18T04:00:00;37.03;;;16.90;;
22240;SDS011;11289;52.524;13.694;2022-12-18T04:02:31;25.13;;;12.00;;
22240;SDS011;11289;52.524;13.694;2022-12-18T04:04:58;35.67;;;16.73;;
22240;SDS011;11289;52.524;13.694;2022-12-18T04:07:27;32.42;;;16.20;;
22240;SDS011;11289;52.524;13.694;2022-12-18T04:09:54;39.70;;;18.50;;
22240;SDS011;11289;52.524;13.694;2022-12-18T04:12:25;39.17;;;18.70;;
22240;SDS011;11289;52.524;13.694;2022-12-18T04:14:51;43.75;;;19.38;;
22240;SDS011;11289;52.524;13.694;2022-12-18T04:17:17;52.08;;;29.15;;
22240;SDS011;11289;52.524;13.694;2022-12-18T04:19:43;56.67;;;31.35;;
22240;SDS011;11289;52.524;13.694;2022-12-18T04:22:11;60.25;;;33.42;;
22240;SDS011;11289;52.524;13.694;2022-12-18T04:24:37;56.55;;;34.30;;
22240;SDS011;11289;52.524;13.694;2022-12-18T04:27:02;65.18;;;37.67;;
22240;SDS011;11289;52.524;13.694;2022-12-18T04:29:28;62.35;;;37.78;;
22240;SDS011;11289;52.524;13.694;2022-12-18T04:31:54;63.63;;;40.63;;
22240;SDS011;11289;52.524;13.694;2022-12-18T04:34:19;67.78;;;39.42;;
22240;SDS011;11289;52.524;13.694;2022-12-18T04:36:45;58.13;;;35.17;;
22240;SDS011;11289;52.524;13.694;2022-12-18T04:39:11;55.75;;;30.58;;
22240;SDS011;11289;52.524;13.694;2022-12-18T04:41:37;48.47;;;26.70;;
22240;SDS011;11289;52.524;13.694;2022-12-18T04:44:02;50.53;;;28.92;;
22240;SDS011;11289;52.524;13.694;2022-12-18T04:46:28;48.72;;;27.25;;
22240;SDS011;11289;52.524;13.694;2022-12-18T04:48:53;41.58;;;23.25;;
22240;SDS011;11289;52.524;13.694;2022-12-18T04:51:19;40.42;;;21.73;;
22240;SDS011;11289;52.524;13.694;2022-12-18T04:53:44;39.72;;;20.25;;
22240;SDS011;11289;52.524;13.694;2022-12-18T04:56:10;42.85;;;19.25;;
22240;SDS011;11289;52.524;13.694;2022-12-18T04:58:38;37.22;;;17.38;;
22240;SDS011;11289;52.524;13.694;2022-12-18T05:01:05;38.35;;;17.88;;
22240;SDS011;11289;52.524;13.694;2022-12-18T05:03:30;35.25;;;16.10;;
22240;SDS011;11289;52.524;13.694;2022-12-18T05:05:56;32.60;;;14.82;;
22240;SDS011;11289;52.524;13.694;2022-12-18T05:08:21;32.63;;;15.23;;
22240;SDS011;11289;52.524;13.694;2022-12-18T05:10:47;39.97;;;15.80;;
22240;SDS011;11289;52.524;13.694;2022-12-18T05:13:12;32.60;;;15.05;;
22240;SDS011;11289;52.524;13.694;2022-12-18T05:15:38;33.10;;;15.30;;
22240;SDS011;11289;52.524;13.694;2022-12-18T05:18:03;43.28;;;17.02;;
22240;SDS011;11289;52.524;13.694;2022-12-18T05:20:29;34.17;;;15.85;;
22240;SDS011;11289;52.524;13.694;2022-12-18T05:22:55;35.90;;;14.93;;
22240;SDS011;11289;52.524;13.694;2022-12-18T05:25:21;34.03;;;15.63;;
22240;SDS011;11289;52.524;13.694;2022-12-18T05:27:48;30.92;;;14.95;;
22240;SDS011;11289;52.524;13.694;2022-12-18T05:30:14;33.28;;;15.32;;
22240;SDS011;11289;52.524;13.694;2022-12-18T05:32:40;32.65;;;15.63;;
22240;SDS011;11289;52.524;13.694;2022-12-18T05:35:06;30.77;;;14.32;;
22240;SDS011;11289;52.524;13.694;2022-12-18T05:37:33;37.50;;;16.95;;
22240;SDS011;11289;52.524;13.694;2022-12-18T05:39:59;43.65;;;18.83;;
22240;SDS011;11289;52.524;13.694;2022-12-18T05:42:24;38.38;;;18.10;;
22240;SDS011;11289;52.524;13.694;2022-12-18T05:44:49;36.88;;;16.30;;
22240;SDS011;11289;52.524;13.694;2022-12-18T05:47:15;28.83;;;15.02;;
22240;SDS011;11289;52.524;13.694;2022-12-18T05:49:40;36.38;;;15.23;;
22240;SDS011;11289;52.524;13.694;2022-12-18T05:52:06;28.88;;;15.80;;
22240;SDS011;11289;52.524;13.694;2022-12-18T05:54:31;36.00;;;15.75;;
22240;SDS011;11289;52.524;13.694;2022-12-18T05:56:57;31.77;;;15.40;;
22240;SDS011;11289;52.524;13.694;2022-12-18T05:59:23;31.85;;;13.85;;
22240;SDS011;11289;52.524;13.694;2022-12-18T06:01:48;33.97;;;15.20;;
22240;SDS011;11289;52.524;13.694;2022-12-18T06:04:14;30.05;;;14.38;;
22240;SDS011;11289;52.524;13.694;2022-12-18T06:06:39;31.30;;;14.70;;
22240;SDS011;11289;52.524;13.694;2022-12-18T06:09:05;36.50;;;15.23;;
22240;SDS011;11289;52.524;13.694;2022-12-18T06:11:35;32.28;;;14.25;;
22240;SDS011;11289;52.524;13.694;2022-12-18T06:14:02;33.50;;;15.45;;
22240;SDS011;11289;52.524;13.694;2022-12-18T06:16:28;34.40;;;15.23;;
22240;SDS011;11289;52.524;13.694;2022-12-18T06:18:58;31.83;;;14.57;;
22240;SDS011;11289;52.524;13.694;2022-12-18T06:21:24;32.20;;;15.27;;
22240;SDS011;11289;52.524;13.694;2022-12-18T06:23:50;34.58;;;15.40;;
22240;SDS011;11289;52.524;13.694;2022-12-18T06:26:15;36.08;;;14.85;;
22240;SDS011;11289;52.524;13.694;2022-12-18T06:28:41;34.75;;;16.58;;
22240;SDS011;11289;52.524;13.694;2022-12-18T06:31:06;34.97;;;15.23;;
22240;SDS011;11289;52.524;13.694;2022-12-18T06:33:32;33.35;;;15.20;;
22240;SDS011;11289;52.524;13.694;2022-12-18T06:36:02;35.75;;;15.30;;
22240;SDS011;11289;52.524;13.694;2022-12-18T06:38:29;39.60;;;16.23;;
22240;SDS011;11289;52.524;13.694;2022-12-18T06:40:56;34.70;;;14.95;;
22240;SDS011;11289;52.524;13.694;2022-12-18T06:43:21;34.65;;;16.17;;
22240;SDS011;11289;52.524;13.694;2022-12-18T06:45:47;39.40;;;16.20;;
22240;SDS011;11289;52.524;13.694;2022-12-18T06:48:17;44.75;;;17.48;;
22240;SDS011;11289;52.524;13.694;2022-12-18T06:50:46;35.83;;;17.05;;
22240;SDS011;11289;52.524;13.694;2022-12-18T06:53:12;40.45;;;16.98;;
22240;SDS011;11289;52.524;13.694;2022-12-18T06:55:37;37.22;;;15.82;;
22240;SDS011;11289;52.524;13.694;2022-12-18T06:58:03;39.78;;;17.80;;
22240;SDS011;11289;52.524;13.694;2022-12-18T07:00:28;44.63;;;17.55;;
22240;SDS011;11289;52.524;13.694;2022-12-18T07:02:54;40.75;;;16.80;;
22240;SDS011;11289;52.524;13.694;2022-12-18T07:05:19;33.10;;;15.32;;
22240;SDS011;11289;52.524;13.694;2022-12-18T07:07:44;38.63;;;16.00;;
22240;SDS011;11289;52.524;13.694;2022-12-18T07:10:10;38.15;;;15.98;;
22240;SDS011;11289;52.524;13.694;2022-12-18T07:12:35;36.92;;;16.27;;
22240;SDS011;11289;52.524;13.694;2022-12-18T07:15:01;35.70;;;15.85;;
22240;SDS011;11289;52.524;13.694;2022-12-18T07:17:27;41.45;;;18.58;;
22240;SDS011;11289;52.524;13.694;2022-12-18T07:19:52;37.95;;;15.85;;
22240;SDS011;11289;52.524;13.694;2022-12-18T07:22:17;40.97;;;16.50;;
22240;SDS011;11289;52.524;13.694;2022-12-18T07:24:43;38.42;;;16.48;;
22240;SDS011;11289;52.524;13.694;2022-12-18T07:27:08;36.45;;;16.00;;
22240;SDS011;11289;52.524;13.694;2022-12-18T07:29:33;33.53;;;15.65;;
22240;SDS011;11289;52.524;13.694;2022-12-18T07:31:59;38.65;;;17.52;;
22240;SDS011;11289;52.524;13.694;2022-12-18T07:34:24;39.22;;;19.15;;
22240;SDS011;11289;52.524;13.694;2022-12-18T07:36:50;36.45;;;15.95;;
22240;SDS011;11289;52.524;13.694;2022-12-18T07:39:15;32.70;;;15.35;;
22240;SDS011;11289;52.524;13.694;2022-12-18T07:41:40;41.13;;;17.83;;
22240;SDS011;11289;52.524;13.694;2022-12-18T07:44:10;41.55;;;16.98;;
22240;SDS011;11289;52.524;13.694;2022-12-18T07:46:36;40.13;;;16.08;;
22240;SDS011;11289;52.524;13.694;2022-12-18T07:49:01;40.95;;;16.65;;
22240;SDS011;11289;52.524;13.694;2022-12-18T07:51:27;37.85;;;16.48;;
22240;SDS011;11289;52.524;13.694;2022-12-18T07:53:52;42.17;;;17.45;;
22240;SDS011;11289;52.524;13.694;2022-12-18T07:56:18;39.55;;;16.77;;
22240;SDS011;11289;52.524;13.694;2022-12-18T07:58:48;40.45;;;17.60;;
22240;SDS011;11289;52.524;13.694;2022-12-18T08:01:13;38.10;;;15.25;;
22240;SDS011;11289;52.524;13.694;2022-12-18T08:03:39;41.05;;;17.05;;
22240;SDS011;11289;52.524;13.694;2022-12-18T08:06:06;40.42;;;16.48;;
22240;SDS011;11289;52.524;13.694;2022-12-18T08:08:33;40.60;;;17.88;;
22240;SDS011;11289;52.524;13.694;2022-12-18T08:10:59;43.13;;;18.27;;
22240;SDS011;11289;52.524;13.694;2022-12-18T08:13:24;41.75;;;16.98;;
22240;SDS011;11289;52.524;13.694;2022-12-18T08:16:04;47.35;;;20.65;;
22240;SDS011;11289;52.524;13.694;2022-12-18T08:18:35;50.47;;;19.70;;
22240;SDS011;11289;52.524;13.694;2022-12-18T08:21:11;41.38;;;18.65;;
22240;SDS011;11289;52.524;13.694;2022-12-18T08:23:37;46.60;;;19.10;;
22240;SDS011;11289;52.524;13.694;2022-12-18T08:26:04;46.03;;;17.95;;
22240;SDS011;11289;52.524;13.694;2022-12-18T08:28:29;54.55;;;19.48;;
22240;SDS011;11289;52.524;13.694;2022-12-18T08:30:55;43.20;;;18.58;;
22240;SDS011;11289;52.524;13.694;2022-12-18T08:33:20;47.75;;;19.52;;
22240;SDS011;11289;52.524;13.694;2022-12-18T08:35:46;47.65;;;19.52;;
22240;SDS011;11289;52.524;13.694;2022-12-18T08:38:11;43.45;;;18.20;;
22240;SDS011;11289;52.524;13.694;2022-12-18T08:40:36;48.03;;;19.95;;
22240;SDS011;11289;52.524;13.694;2022-12-18T08:43:02;46.55;;;19.00;;
22240;SDS011;11289;52.524;13.694;2022-12-18T08:45:46;48.92;;;19.90;;
22240;SDS011;11289;52.524;13.694;2022-12-18T08:48:11;50.47;;;20.98;;
22240;SDS011;11289;52.524;13.694;2022-12-18T08:50:37;48.67;;;17.95;;
22240;SDS011;11289;52.524;13.694;2022-12-18T08:53:02;47.90;;;19.35;;
22240;SDS011;11289;52.524;13.694;2022-12-18T08:55:28;47.10;;;18.35;;
22240;SDS011;11289;52.524;13.694;2022-12-18T08:57:54;45.78;;;19.35;;
22240;SDS011;11289;52.524;13.694;2022-12-18T09:00:21;47.58;;;18.10;;
22240;SDS011;11289;52.524;13.694;2022-12-18T09:02:46;43.83;;;18.08;;
22240;SDS011;11289;52.524;13.694;2022-12-18T09:05:12;44.38;;;17.83;;
22240;SDS011;11289;52.524;13.694;2022-12-18T09:07:37;44.92;;;19.65;;
22240;SDS011;11289;52.524;13.694;2022-12-18T09:10:04;48.38;;;18.42;;
22240;SDS011;11289;52.524;13.694;2022-12-18T09:12:30;47.67;;;18.70;;
22240;SDS011;11289;52.524;13.694;2022-12-18T09:14:55;44.00;;;18.38;;
22240;SDS011;11289;52.524;13.694;2022-12-18T09:17:22;50.05;;;21.58;;
22240;SDS011;11289;52.524;13.694;2022-12-18T09:19:49;54.75;;;20.75;;
22240;SDS011;11289;52.524;13.694;2022-12-18T09:22:14;48.63;;;20.95;;
22240;SDS011;11289;52.524;13.694;2022-12-18T09:24:39;51.40;;;19.83;;
22240;SDS011;11289;52.524;13.694;2022-12-18T09:27:05;47.13;;;19.77;;
22240;SDS011;11289;52.524;13.694;2022-12-18T09:29:30;43.25;;;16.67;;
22240;SDS011;11289;52.524;13.694;2022-12-18T09:31:57;42.15;;;17.50;;
22240;SDS011;11289;52.524;13.694;2022-12-18T09:34:24;50.97;;;19.52;;
22240;SDS011;11289;52.524;13.694;2022-12-18T09:36:50;46.25;;;17.95;;
22240;SDS011;11289;52.524;13.694;2022-12-18T09:39:15;48.30;;;19.83;;
22240;SDS011;11289;52.524;13.694;2022-12-18T09:49:53;51.55;;;20.00;;
22240;SDS011;11289;52.524;13.694;2022-12-18T09:52:24;46.67;;;20.00;;
22240;SDS011;11289;52.524;13.694;2022-12-18T09:55:22;49.20;;;21.25;;
22240;SDS011;11289;52.524;13.694;2022-12-18T09:58:05;44.22;;;18.50;;
22240;SDS011;11289;52.524;13.694;2022-12-18T10:00:38;43.65;;;16.52;;
22240;SDS011;11289;52.524;13.694;2022-12-18T10:03:08;42.65;;;18.02;;
22240;SDS011;11289;52.524;13.694;2022-12-18T10:05:44;30.10;;;12.70;;
22240;SDS011;11289;52.524;13.694;2022-12-18T10:08:22;42.28;;;17.40;;
22240;SDS011;11289;52.524;13.694;2022-12-18T10:10:59;40.67;;;19.15;;
22240;SDS011;11289;52.524;13.694;2022-12-18T10:13:45;42.08;;;18.65;;
22240;SDS011;11289;52.524;13.694;2022-12-18T10:21:33;36.78;;;16.48;;
22240;SDS011;11289;52.524;13.694;2022-12-18T10:24:43;46.00;;;21.98;;
22240;SDS011;11289;52.524;13.694;2022-12-18T10:27:21;37.60;;;17.45;;
22240;SDS011;11289;52.524;13.694;2022-12-18T10:29:49;40.35;;;17.20;;
22240;SDS011;11289;52.524;13.694;2022-12-18T10:32:16;33.50;;;16.40;;
22240;SDS011;11289;52.524;13.694;2022-12-18T10:34:48;35.55;;;18.20;;
22240;SDS011;11289;52.524;13.694;2022-12-18T10:37:16;37.45;;;17.48;;
22240;SDS011;11289;52.524;13.694;2022-12-18T10:39:43;35.75;;;17.08;;
22240;SDS011;11289;52.524;13.694;2022-12-18T10:42:10;36.15;;;17.55;;
22240;SDS011;11289;52.524;13.694;2022-12-18T10:44:43;30.63;;;14.77;;
22240;SDS011;11289;52.524;13.694;2022-12-18T10:47:11;32.05;;;14.52;;
22240;SDS011;11289;52.524;13.694;2022-12-18T10:49:42;35.00;;;14.73;;
22240;SDS011;11289;52.524;13.694;2022-12-18T10:52:18;33.15;;;15.73;;
22240;SDS011;11289;52.524;13.694;2022-12-18T10:54:52;31.08;;;13.95;;
22240;SDS011;11289;52.524;13.694;2022-12-18T10:59:55;35.88;;;13.77;;
22240;SDS011;11289;52.524;13.694;2022-12-18T11:02:27;27.88;;;11.23;;
22240;SDS011;11289;52.524;13.694;2022-12-18T11:04:59;28.77;;;13.98;;
22240;SDS011;11289;52.524;13.694;2022-12-18T11:07:26;34.40;;;14.43;;
22240;SDS011;11289;52.524;13.694;2022-12-18T11:10:20;32.60;;;14.18;;
22240;SDS011;11289;52.524;13.694;2022-12-18T11:12:48;41.78;;;15.35;;
22240;SDS011;11289;52.524;13.694;2022-12-18T11:15:21;30.52;;;15.93;;
22240;SDS011;11289;52.524;13.694;2022-12-18T11:17:51;36.38;;;15.73;;
22240;SDS011;11289;52.524;13.694;2022-12-18T11:20:23;35.40;;;17.05;;
22240;SDS011;11289;52.524;13.694;2022-12-18T11:23:04;34.40;;;15.45;;
22240;SDS011;11289;52.524;13.694;2022-12-18T11:25:37;33.65;;;15.23;;
22240;SDS011;11289;52.524;13.694;2022-12-18T11:28:04;31.52;;;15.05;;
22240;SDS011;11289;52.524;13.694;2022-12-18T11:36:38;33.78;;;15.02;;
22240;SDS011;11289;52.524;13.694;2022-12-18T11:44:48;32.80;;;14.38;;
22240;SDS011;11289;52.524;13.694;2022-12-18T11:47:21;34.17;;;16.27;;
22240;SDS011;11289;52.524;13.694;2022-12-18T11:50:02;31.65;;;15.70;;
22240;SDS011;11289;52.524;13.694;2022-12-18T11:55:01;37.15;;;17.60;;
22240;SDS011;11289;52.524;13.694;2022-12-18T12:00:28;37.78;;;17.20;;
22240;SDS011;11289;52.524;13.694;2022-12-18T12:03:03;34.67;;;17.17;;
22240;SDS011;11289;52.524;13.694;2022-12-18T12:08:18;32.83;;;17.10;;
22240;SDS011;11289;52.524;13.694;2022-12-18T12:13:48;32.53;;;14.88;;
22240;SDS011;11289;52.524;13.694;2022-12-18T12:17:03;31.80;;;17.27;;
22240;SDS011;11289;52.524;13.694;2022-12-18T12:22:40;34.80;;;15.93;;
22240;SDS011;11289;52.524;13.694;2022-12-18T12:30:50;23.35;;;13.90;;
22240;SDS011;11289;52.524;13.694;2022-12-18T12:51:54;27.95;;;14.23;;
22240;SDS011;11289;52.524;13.694;2022-12-18T12:54:25;27.55;;;14.40;;
22240;SDS011;11289;52.524;13.694;2022-12-18T12:57:04;34.35;;;14.98;;
22240;SDS011;11289;52.524;13.694;2022-12-18T13:02:33;27.40;;;13.93;;
22240;SDS011;11289;52.524;13.694;2022-12-18T13:07:50;32.53;;;15.55;;
22240;SDS011;11289;52.524;13.694;2022-12-18T13:18:21;35.65;;;16.20;;
22240;SDS011;11289;52.524;13.694;2022-12-18T13:20:49;31.58;;;14.57;;
22240;SDS011;11289;52.524;13.694;2022-12-18T13:28:15;32.53;;;15.95;;
22240;SDS011;11289;52.524;13.694;2022-12-18T13:38:23;28.77;;;15.35;;
22240;SDS011;11289;52.524;13.694;2022-12-18T13:44:12;34.42;;;16.48;;
22240;SDS011;11289;52.524;13.694;2022-12-18T13:46:59;32.67;;;17.20;;
22240;SDS011;11289;52.524;13.694;2022-12-18T13:52:21;35.00;;;16.30;;
22240;SDS011;11289;52.524;13.694;2022-12-18T13:54:51;32.80;;;16.88;;
22240;SDS011;11289;52.524;13.694;2022-12-18T13:57:29;36.08;;;16.67;;
22240;SDS011;11289;52.524;13.694;2022-12-18T14:00:44;29.55;;;13.90;;
22240;SDS011;11289;52.524;13.694;2022-12-18T14:02:50;36.45;;;17.23;;
22240;SDS011;11289;52.524;13.694;2022-12-18T14:05:25;33.17;;;17.02;;
22240;SDS011;11289;52.524;13.694;2022-12-18T14:07:55;33.53;;;16.17;;
22240;SDS011;11289;52.524;13.694;2022-12-18T14:10:26;29.60;;;16.42;;
22240;SDS011;11289;52.524;13.694;2022-12-18T14:12:51;42.35;;;22.75;;
22240;SDS011;11289;52.524;13.694;2022-12-18T14:17:58;34.00;;;16.60;;
22240;SDS011;11289;52.524;13.694;2022-12-18T14:20:27;32.78;;;15.88;;
22240;SDS011;11289;52.524;13.694;2022-12-18T14:22:55;33.65;;;16.55;;
22240;SDS011;11289;52.524;13.694;2022-12-18T14:25:23;26.20;;;14.50;;
22240;SDS011;11289;52.524;13.694;2022-12-18T14:27:51;31.33;;;15.15;;
22240;SDS011;11289;52.524;13.694;2022-12-18T14:33:00;31.60;;;16.67;;
22240;SDS011;11289;52.524;13.694;2022-12-18T14:35:26;36.33;;;17.05;;
22240;SDS011;11289;52.524;13.694;2022-12-18T14:37:51;34.92;;;17.30;;
22240;SDS011;11289;52.524;13.694;2022-12-18T14:40:17;33.55;;;16.48;;
22240;SDS011;11289;52.524;13.694;2022-12-18T14:42:42;31.52;;;17.00;;
22240;SDS011;11289;52.524;13.694;2022-12-18T14:45:31;31.77;;;16.75;;
22240;SDS011;11289;52.524;13.694;2022-12-18T14:48:07;31.33;;;16.02;;
22240;SDS011;11289;52.524;13.694;2022-12-18T14:50:36;33.03;;;16.10;;
22240;SDS011;11289;52.524;13.694;2022-12-18T14:53:02;38.85;;;16.80;;
22240;SDS011;11289;52.524;13.694;2022-12-18T14:55:28;30.77;;;17.50;;
22240;SDS011;11289;52.524;13.694;2022-12-18T14:57:54;32.97;;;17.50;;
22240;SDS011;11289;52.524;13.694;2022-12-18T15:00:22;34.65;;;18.63;;
22240;SDS011;11289;52.524;13.694;2022-12-18T15:02:55;38.55;;;18.65;;
22240;SDS011;11289;52.524;13.694;2022-12-18T15:07:56;36.88;;;18.70;;
22240;SDS011;11289;52.524;13.694;2022-12-18T15:10:24;37.63;;;19.63;;
22240;SDS011;11289;52.524;13.694;2022-12-18T15:20:53;38.55;;;19.80;;
22240;SDS011;11289;52.524;13.694;2022-12-18T15:25:55;47.35;;;21.52;;
22240;SDS011;11289;52.524;13.694;2022-12-18T15:28:31;36.13;;;20.20;;
22240;SDS011;11289;52.524;13.694;2022-12-18T15:31:05;35.47;;;19.80;;
22240;SDS011;11289;52.524;13.694;2022-12-18T15:33:38;38.53;;;20.67;;
22240;SDS011;11289;52.524;13.694;2022-12-18T15:36:09;35.53;;;20.58;;
22240;SDS011;11289;52.524;13.694;2022-12-18T15:38:36;35.53;;;18.83;;
22240;SDS011;11289;52.524;13.694;2022-12-18T15:41:01;38.63;;;20.02;;
22240;SDS011;11289;52.524;13.694;2022-12-18T15:43:27;37.70;;;20.55;;
22240;SDS011;11289;52.524;13.694;2022-12-18T15:46:06;39.10;;;20.27;;
22240;SDS011;11289;52.524;13.694;2022-12-18T15:48:40;35.70;;;19.33;;
22240;SDS011;11289;52.524;13.694;2022-12-18T15:51:14;34.60;;;17.70;;
22240;SDS011;11289;52.524;13.694;2022-12-18T15:53:41;39.95;;;19.88;;
22240;SDS011;11289;52.524;13.694;2022-12-18T15:56:13;36.28;;;20.33;;
22240;SDS011;11289;52.524;13.694;2022-12-18T15:58:58;34.03;;;18.20;;
22240;SDS011;11289;52.524;13.694;2022-12-18T16:01:25;33.60;;;19.00;;
22240;SDS011;11289;52.524;13.694;2022-12-18T16:03:53;32.50;;;18.17;;
22240;SDS011;11289;52.524;13.694;2022-12-18T16:06:19;28.33;;;16.52;;
22240;SDS011;11289;52.524;13.694;2022-12-18T16:08:45;35.03;;;19.08;;
22240;SDS011;11289;52.524;13.694;2022-12-18T16:14:02;35.47;;;18.02;;
22240;SDS011;11289;52.524;13.694;2022-12-18T16:16:37;34.80;;;19.10;;
22240;SDS011;11289;52.524;13.694;2022-12-18T16:19:02;31.77;;;16.35;;
22240;SDS011;11289;52.524;13.694;2022-12-18T16:21:27;28.50;;;14.48;;
22240;SDS011;11289;52.524;13.694;2022-12-18T16:23:53;32.25;;;17.00;;
22240;SDS011;11289;52.524;13.694;2022-12-18T16:26:18;30.15;;;16.88;;
22240;SDS011;11289;52.524;13.694;2022-12-18T16:28:44;40.25;;;22.98;;
22240;SDS011;11289;52.524;13.694;2022-12-18T16:31:09;38.63;;;17.92;;
22240;SDS011;11289;52.524;13.694;2022-12-18T16:33:34;32.65;;;17.10;;
22240;SDS011;11289;52.524;13.694;2022-12-18T16:36:00;31.35;;;18.25;;
22240;SDS011;11289;52.524;13.694;2022-12-18T16:38:25;34.20;;;18.17;;
22240;SDS011;11289;52.524;13.694;2022-12-18T16:40:50;32.42;;;17.73;;
22240;SDS011;11289;52.524;13.694;2022-12-18T16:43:34;38.67;;;18.75;;
22240;SDS011;11289;52.524;13.694;2022-12-18T16:46:00;36.80;;;18.75;;